FOON

M'Vengue El Hadj Omar Bongo Ondimba International Airport

Franceville, Gabon
METAR FOON 141800Z 19004KT 160V220 8000 SCT008 26/24 Q1014
Observed Flight Rules
Dec-14 @ 18:00 UTC (4 hours ago) Marginal Visual Flight Rules
Wind Visibility Clouds
190° at 4 knots 7,998 meters
  • Scattered at 800' AGL
Temperatures Readings
Current 26°C / 79°F
Dewpoint 24°C / 75°F
Humidity 89%
Altimeter 29.94" Hg
Pressure 1014 hPa
Elevation 441
METAR FOON 141800Z 19004KT 160V220 8000 SCT008 26/24 Q1014
Observed Flight Rules
Dec-14 @ 18:00 UTC
(4 hours ago)
MVFR
Wind Visibility
190° at 4 knots 7,998 meters
Clouds
  • Scattered at 800' AGL
Temperature Dewpoint
26°C / 79°F 24°C / 75°F
Humidity Altimeter Pressure
89% 29.94" Hg 1014 hPa